sensor_id;sensor_type;location;lat;lon;timestamp;temperature;humidity
18392;DHT22;9322;50.932;5.318;2023-09-30T00:02:15;12.50;1.40
18392;DHT22;9322;50.932;5.318;2023-09-30T00:04:41;12.50;1.40
18392;DHT22;9322;50.932;5.318;2023-09-30T00:07:07;12.50;1.40
18392;DHT22;9322;50.932;5.318;2023-09-30T00:09:33;12.60;1.40
18392;DHT22;9322;50.932;5.318;2023-09-30T00:11:59;12.50;1.40
18392;DHT22;9322;50.932;5.318;2023-09-30T00:14:25;12.50;1.40
18392;DHT22;9322;50.932;5.318;2023-09-30T00:16:51;12.50;1.40
18392;DHT22;9322;50.932;5.318;2023-09-30T00:19:16;12.50;1.40
18392;DHT22;9322;50.932;5.318;2023-09-30T00:21:42;12.50;1.40
18392;DHT22;9322;50.932;5.318;2023-09-30T00:24:08;12.40;1.40
18392;DHT22;9322;50.932;5.318;2023-09-30T00:26:34;12.40;1.40
18392;DHT22;9322;50.932;5.318;2023-09-30T00:29:00;12.40;1.40
18392;DHT22;9322;50.932;5.318;2023-09-30T00:31:29;12.40;1.40
18392;DHT22;9322;50.932;5.318;2023-09-30T00:33:55;12.40;1.40
18392;DHT22;9322;50.932;5.318;2023-09-30T00:36:21;12.50;1.40
18392;DHT22;9322;50.932;5.318;2023-09-30T00:38:47;12.50;1.40
18392;DHT22;9322;50.932;5.318;2023-09-30T00:41:12;12.50;1.40
18392;DHT22;9322;50.932;5.318;2023-09-30T00:43:39;12.50;1.40
18392;DHT22;9322;50.932;5.318;2023-09-30T00:46:35;12.50;1.40
18392;DHT22;9322;50.932;5.318;2023-09-30T00:49:03;12.50;1.40
18392;DHT22;9322;50.932;5.318;2023-09-30T00:51:29;12.40;1.40
18392;DHT22;9322;50.932;5.318;2023-09-30T00:53:59;12.50;1.40
18392;DHT22;9322;50.932;5.318;2023-09-30T00:56:27;12.70;1.40
18392;DHT22;9322;50.932;5.318;2023-09-30T00:58:53;12.70;1.40
18392;DHT22;9322;50.932;5.318;2023-09-30T01:01:22;12.50;1.40
18392;DHT22;9322;50.932;5.318;2023-09-30T01:03:49;12.50;1.40
18392;DHT22;9322;50.932;5.318;2023-09-30T01:06:15;12.50;1.40
18392;DHT22;9322;50.932;5.318;2023-09-30T01:08:40;12.40;1.40
18392;DHT22;9322;50.932;5.318;2023-09-30T01:11:07;12.40;1.40
18392;DHT22;9322;50.932;5.318;2023-09-30T01:13:37;12.50;1.40
18392;DHT22;9322;50.932;5.318;2023-09-30T01:16:07;12.50;1.40
18392;DHT22;9322;50.932;5.318;2023-09-30T01:18:35;12.40;1.40
18392;DHT22;9322;50.932;5.318;2023-09-30T01:21:04;12.50;1.40
18392;DHT22;9322;50.932;5.318;2023-09-30T01:23:31;12.50;1.40
18392;DHT22;9322;50.932;5.318;2023-09-30T01:25:57;12.50;1.40
18392;DHT22;9322;50.932;5.318;2023-09-30T01:28:24;12.40;1.40
18392;DHT22;9322;50.932;5.318;2023-09-30T01:30:50;12.40;1.40
18392;DHT22;9322;50.932;5.318;2023-09-30T01:33:16;12.40;1.40
18392;DHT22;9322;50.932;5.318;2023-09-30T01:35:42;12.40;1.40
18392;DHT22;9322;50.932;5.318;2023-09-30T01:38:08;12.40;1.40
18392;DHT22;9322;50.932;5.318;2023-09-30T01:40:34;12.30;1.40
18392;DHT22;9322;50.932;5.318;2023-09-30T01:42:59;12.20;1.40
18392;DHT22;9322;50.932;5.318;2023-09-30T01:45:26;12.30;1.40
18392;DHT22;9322;50.932;5.318;2023-09-30T01:47:51;12.20;1.40
18392;DHT22;9322;50.932;5.318;2023-09-30T01:50:17;12.20;1.40
18392;DHT22;9322;50.932;5.318;2023-09-30T01:52:43;12.20;1.40
18392;DHT22;9322;50.932;5.318;2023-09-30T01:55:09;12.10;1.40
18392;DHT22;9322;50.932;5.318;2023-09-30T01:57:34;12.00;1.40
18392;DHT22;9322;50.932;5.318;2023-09-30T02:00:00;12.00;1.40
18392;DHT22;9322;50.932;5.318;2023-09-30T02:02:26;12.00;1.40
18392;DHT22;9322;50.932;5.318;2023-09-30T02:04:52;11.90;1.40
18392;DHT22;9322;50.932;5.318;2023-09-30T02:07:19;11.80;1.40
18392;DHT22;9322;50.932;5.318;2023-09-30T02:09:44;11.80;1.40
18392;DHT22;9322;50.932;5.318;2023-09-30T02:12:10;11.80;1.40
18392;DHT22;9322;50.932;5.318;2023-09-30T02:14:37;11.80;1.40
18392;DHT22;9322;50.932;5.318;2023-09-30T02:17:04;11.70;1.40
18392;DHT22;9322;50.932;5.318;2023-09-30T02:19:30;11.70;1.40
18392;DHT22;9322;50.932;5.318;2023-09-30T02:21:59;11.70;1.40
18392;DHT22;9322;50.932;5.318;2023-09-30T02:24:25;11.80;1.40
18392;DHT22;9322;50.932;5.318;2023-09-30T02:26:51;11.80;1.40
18392;DHT22;9322;50.932;5.318;2023-09-30T02:29:17;11.70;1.40
18392;DHT22;9322;50.932;5.318;2023-09-30T02:31:42;11.60;1.40
18392;DHT22;9322;50.932;5.318;2023-09-30T02:34:08;11.60;1.40
18392;DHT22;9322;50.932;5.318;2023-09-30T02:36:34;11.60;1.40
18392;DHT22;9322;50.932;5.318;2023-09-30T02:39:07;11.60;1.40
18392;DHT22;9322;50.932;5.318;2023-09-30T02:41:36;11.60;1.40
18392;DHT22;9322;50.932;5.318;2023-09-30T02:44:03;11.50;1.40
18392;DHT22;9322;50.932;5.318;2023-09-30T02:46:29;11.50;1.40
18392;DHT22;9322;50.932;5.318;2023-09-30T02:48:55;11.40;1.40
18392;DHT22;9322;50.932;5.318;2023-09-30T02:51:20;11.40;1.40
18392;DHT22;9322;50.932;5.318;2023-09-30T02:53:46;11.30;1.40
18392;DHT22;9322;50.932;5.318;2023-09-30T02:56:14;11.30;1.40
18392;DHT22;9322;50.932;5.318;2023-09-30T02:58:39;11.40;1.40
18392;DHT22;9322;50.932;5.318;2023-09-30T03:01:06;11.50;1.40
18392;DHT22;9322;50.932;5.318;2023-09-30T03:03:32;11.60;1.40
18392;DHT22;9322;50.932;5.318;2023-09-30T03:05:59;11.50;1.40
18392;DHT22;9322;50.932;5.318;2023-09-30T03:08:26;11.50;1.40
18392;DHT22;9322;50.932;5.318;2023-09-30T03:10:52;11.70;1.40
18392;DHT22;9322;50.932;5.318;2023-09-30T03:13:18;11.70;1.40
18392;DHT22;9322;50.932;5.318;2023-09-30T03:15:47;11.80;1.40
18392;DHT22;9322;50.932;5.318;2023-09-30T03:18:15;11.90;1.40
18392;DHT22;9322;50.932;5.318;2023-09-30T03:20:43;11.90;1.40
18392;DHT22;9322;50.932;5.318;2023-09-30T03:23:09;11.90;1.40
18392;DHT22;9322;50.932;5.318;2023-09-30T03:25:35;11.90;1.40
18392;DHT22;9322;50.932;5.318;2023-09-30T03:28:02;11.90;1.40
18392;DHT22;9322;50.932;5.318;2023-09-30T03:30:27;12.00;1.40
18392;DHT22;9322;50.932;5.318;2023-09-30T03:32:55;11.90;1.40
18392;DHT22;9322;50.932;5.318;2023-09-30T03:35:20;12.00;1.40
18392;DHT22;9322;50.932;5.318;2023-09-30T03:37:47;12.00;1.40
18392;DHT22;9322;50.932;5.318;2023-09-30T03:40:13;12.00;1.40
18392;DHT22;9322;50.932;5.318;2023-09-30T03:42:47;11.80;1.40
18392;DHT22;9322;50.932;5.318;2023-09-30T03:45:16;11.90;1.40
18392;DHT22;9322;50.932;5.318;2023-09-30T03:47:42;11.90;1.40
18392;DHT22;9322;50.932;5.318;2023-09-30T03:50:09;11.80;1.40
18392;DHT22;9322;50.932;5.318;2023-09-30T03:52:40;11.80;1.40
18392;DHT22;9322;50.932;5.318;2023-09-30T03:55:12;11.80;1.40
18392;DHT22;9322;50.932;5.318;2023-09-30T03:57:39;11.70;1.40
18392;DHT22;9322;50.932;5.318;2023-09-30T04:00:06;11.70;1.40
18392;DHT22;9322;50.932;5.318;2023-09-30T04:02:33;11.70;1.40
18392;DHT22;9322;50.932;5.318;2023-09-30T04:05:00;11.70;1.40
18392;DHT22;9322;50.932;5.318;2023-09-30T04:07:29;11.90;1.40
18392;DHT22;9322;50.932;5.318;2023-09-30T04:09:55;11.80;1.40
18392;DHT22;9322;50.932;5.318;2023-09-30T04:12:21;11.70;1.40
18392;DHT22;9322;50.932;5.318;2023-09-30T04:14:51;11.70;1.40
18392;DHT22;9322;50.932;5.318;2023-09-30T04:17:18;11.90;1.40
18392;DHT22;9322;50.932;5.318;2023-09-30T04:19:43;11.90;1.40
18392;DHT22;9322;50.932;5.318;2023-09-30T04:22:09;11.90;1.40
18392;DHT22;9322;50.932;5.318;2023-09-30T04:24:35;12.10;1.40
18392;DHT22;9322;50.932;5.318;2023-09-30T04:27:00;12.00;1.40
18392;DHT22;9322;50.932;5.318;2023-09-30T04:29:28;12.00;1.40
18392;DHT22;9322;50.932;5.318;2023-09-30T04:31:58;11.90;1.40
18392;DHT22;9322;50.932;5.318;2023-09-30T04:34:24;12.00;1.40
18392;DHT22;9322;50.932;5.318;2023-09-30T04:36:49;12.10;1.40
18392;DHT22;9322;50.932;5.318;2023-09-30T04:39:15;12.10;1.40
18392;DHT22;9322;50.932;5.318;2023-09-30T04:41:41;12.10;1.40
18392;DHT22;9322;50.932;5.318;2023-09-30T04:44:08;12.10;1.40
18392;DHT22;9322;50.932;5.318;2023-09-30T04:46:36;12.00;1.40
18392;DHT22;9322;50.932;5.318;2023-09-30T04:49:09;12.00;1.40
18392;DHT22;9322;50.932;5.318;2023-09-30T04:51:34;11.90;1.40
18392;DHT22;9322;50.932;5.318;2023-09-30T04:54:00;11.90;1.40
18392;DHT22;9322;50.932;5.318;2023-09-30T04:56:27;11.70;1.40
18392;DHT22;9322;50.932;5.318;2023-09-30T04:58:53;11.70;1.40
18392;DHT22;9322;50.932;5.318;2023-09-30T05:01:18;11.70;1.40
18392;DHT22;9322;50.932;5.318;2023-09-30T05:03:45;11.60;1.40
18392;DHT22;9322;50.932;5.318;2023-09-30T05:06:14;11.60;1.40
18392;DHT22;9322;50.932;5.318;2023-09-30T05:08:40;11.50;1.40
18392;DHT22;9322;50.932;5.318;2023-09-30T05:11:07;11.40;1.40
18392;DHT22;9322;50.932;5.318;2023-09-30T05:13:33;11.40;1.40
18392;DHT22;9322;50.932;5.318;2023-09-30T05:15:59;11.30;1.40
18392;DHT22;9322;50.932;5.318;2023-09-30T05:18:25;11.30;1.40
18392;DHT22;9322;50.932;5.318;2023-09-30T05:20:51;11.30;1.40
18392;DHT22;9322;50.932;5.318;2023-09-30T05:23:17;11.20;1.40
18392;DHT22;9322;50.932;5.318;2023-09-30T05:25:43;11.20;1.40
18392;DHT22;9322;50.932;5.318;2023-09-30T05:28:09;11.10;1.40
18392;DHT22;9322;50.932;5.318;2023-09-30T05:30:35;11.10;1.40
18392;DHT22;9322;50.932;5.318;2023-09-30T05:33:01;11.10;1.40
18392;DHT22;9322;50.932;5.318;2023-09-30T05:35:27;11.00;1.40
18392;DHT22;9322;50.932;5.318;2023-09-30T05:37:53;11.00;1.40
18392;DHT22;9322;50.932;5.318;2023-09-30T05:40:22;10.90;1.40
18392;DHT22;9322;50.932;5.318;2023-09-30T05:42:49;10.90;1.40
18392;DHT22;9322;50.932;5.318;2023-09-30T05:45:15;11.00;1.40
18392;DHT22;9322;50.932;5.318;2023-09-30T05:47:41;11.10;1.40
18392;DHT22;9322;50.932;5.318;2023-09-30T05:50:07;11.20;1.40
18392;DHT22;9322;50.932;5.318;2023-09-30T05:52:34;11.20;1.40
18392;DHT22;9322;50.932;5.318;2023-09-30T05:55:02;11.30;1.40
18392;DHT22;9322;50.932;5.318;2023-09-30T05:57:28;11.50;1.40
18392;DHT22;9322;50.932;5.318;2023-09-30T05:59:54;11.50;1.40
18392;DHT22;9322;50.932;5.318;2023-09-30T06:02:19;11.60;1.40
18392;DHT22;9322;50.932;5.318;2023-09-30T06:04:45;11.70;1.40
18392;DHT22;9322;50.932;5.318;2023-09-30T06:07:12;11.90;1.40
18392;DHT22;9322;50.932;5.318;2023-09-30T06:09:38;12.00;1.40
18392;DHT22;9322;50.932;5.318;2023-09-30T06:12:03;12.40;1.40
18392;DHT22;9322;50.932;5.318;2023-09-30T06:14:32;12.80;1.40
18392;DHT22;9322;50.932;5.318;2023-09-30T06:16:58;13.00;1.40
18392;DHT22;9322;50.932;5.318;2023-09-30T06:19:24;13.60;1.40
18392;DHT22;9322;50.932;5.318;2023-09-30T06:21:52;13.90;1.40
18392;DHT22;9322;50.932;5.318;2023-09-30T06:24:17;14.10;1.40
18392;DHT22;9322;50.932;5.318;2023-09-30T06:26:45;14.30;1.40
18392;DHT22;9322;50.932;5.318;2023-09-30T06:29:14;14.50;1.40
18392;DHT22;9322;50.932;5.318;2023-09-30T06:31:40;14.80;1.40
18392;DHT22;9322;50.932;5.318;2023-09-30T06:34:06;14.80;1.40
18392;DHT22;9322;50.932;5.318;2023-09-30T06:36:32;15.20;1.40
18392;DHT22;9322;50.932;5.318;2023-09-30T06:38:58;15.50;1.40
18392;DHT22;9322;50.932;5.318;2023-09-30T06:41:24;15.70;1.40
18392;DHT22;9322;50.932;5.318;2023-09-30T06:43:51;16.20;1.40
18392;DHT22;9322;50.932;5.318;2023-09-30T06:46:17;16.40;1.40
18392;DHT22;9322;50.932;5.318;2023-09-30T06:48:43;16.70;1.40
18392;DHT22;9322;50.932;5.318;2023-09-30T06:51:18;17.00;1.40
18392;DHT22;9322;50.932;5.318;2023-09-30T06:53:44;17.30;1.40
18392;DHT22;9322;50.932;5.318;2023-09-30T06:56:11;17.30;1.40
18392;DHT22;9322;50.932;5.318;2023-09-30T06:58:38;17.20;1.40
18392;DHT22;9322;50.932;5.318;2023-09-30T07:01:04;16.60;1.40
18392;DHT22;9322;50.932;5.318;2023-09-30T07:03:29;16.50;1.40
18392;DHT22;9322;50.932;5.318;2023-09-30T07:05:56;16.90;1.40
18392;DHT22;9322;50.932;5.318;2023-09-30T07:08:22;17.10;1.40
18392;DHT22;9322;50.932;5.318;2023-09-30T07:10:48;17.20;1.40
18392;DHT22;9322;50.932;5.318;2023-09-30T07:13:18;17.30;1.40
18392;DHT22;9322;50.932;5.318;2023-09-30T07:15:44;16.20;1.40
18392;DHT22;9322;50.932;5.318;2023-09-30T07:18:10;15.20;1.40
18392;DHT22;9322;50.932;5.318;2023-09-30T07:20:37;15.10;1.40
18392;DHT22;9322;50.932;5.318;2023-09-30T07:23:03;15.30;1.40
18392;DHT22;9322;50.932;5.318;2023-09-30T07:25:29;15.40;1.40
18392;DHT22;9322;50.932;5.318;2023-09-30T07:27:57;15.30;1.40
18392;DHT22;9322;50.932;5.318;2023-09-30T07:30:23;15.50;1.40
18392;DHT22;9322;50.932;5.318;2023-09-30T07:32:49;15.80;1.40
18392;DHT22;9322;50.932;5.318;2023-09-30T07:35:15;15.80;1.40
18392;DHT22;9322;50.932;5.318;2023-09-30T07:37:42;15.30;1.40
18392;DHT22;9322;50.932;5.318;2023-09-30T07:40:08;15.40;1.40
18392;DHT22;9322;50.932;5.318;2023-09-30T07:42:34;15.10;1.40
18392;DHT22;9322;50.932;5.318;2023-09-30T07:45:00;14.60;1.40
18392;DHT22;9322;50.932;5.318;2023-09-30T07:47:26;14.80;1.40
18392;DHT22;9322;50.932;5.318;2023-09-30T07:49:52;14.60;1.40
18392;DHT22;9322;50.932;5.318;2023-09-30T07:52:18;14.80;1.40
18392;DHT22;9322;50.932;5.318;2023-09-30T07:54:44;14.90;1.40
18392;DHT22;9322;50.932;5.318;2023-09-30T07:57:09;14.30;1.40
18392;DHT22;9322;50.932;5.318;2023-09-30T07:59:35;14.10;1.40
18392;DHT22;9322;50.932;5.318;2023-09-30T08:02:01;14.00;1.40
18392;DHT22;9322;50.932;5.318;2023-09-30T08:04:30;13.90;1.40
18392;DHT22;9322;50.932;5.318;2023-09-30T08:06:56;14.00;1.40
18392;DHT22;9322;50.932;5.318;2023-09-30T08:09:22;14.30;1.40
18392;DHT22;9322;50.932;5.318;2023-09-30T08:11:50;14.70;1.40
18392;DHT22;9322;50.932;5.318;2023-09-30T08:14:16;14.80;1.40
18392;DHT22;9322;50.932;5.318;2023-09-30T08:16:42;14.80;1.40
18392;DHT22;9322;50.932;5.318;2023-09-30T08:19:08;14.70;1.40
18392;DHT22;9322;50.932;5.318;2023-09-30T08:21:34;14.90;1.40
18392;DHT22;9322;50.932;5.318;2023-09-30T08:24:01;15.00;1.40
18392;DHT22;9322;50.932;5.318;2023-09-30T08:26:27;15.20;1.40
18392;DHT22;9322;50.932;5.318;2023-09-30T08:28:53;15.00;1.40
18392;DHT22;9322;50.932;5.318;2023-09-30T08:31:19;15.00;1.40
18392;DHT22;9322;50.932;5.318;2023-09-30T08:33:45;14.90;1.40
18392;DHT22;9322;50.932;5.318;2023-09-30T08:36:11;14.90;1.40
18392;DHT22;9322;50.932;5.318;2023-09-30T08:38:38;15.20;1.40
18392;DHT22;9322;50.932;5.318;2023-09-30T08:41:05;15.40;1.40
18392;DHT22;9322;50.932;5.318;2023-09-30T08:43:31;15.30;1.40
18392;DHT22;9322;50.932;5.318;2023-09-30T08:46:00;15.20;1.40
18392;DHT22;9322;50.932;5.318;2023-09-30T08:48:28;15.20;1.40
18392;DHT22;9322;50.932;5.318;2023-09-30T08:50:54;15.20;1.40
18392;DHT22;9322;50.932;5.318;2023-09-30T08:53:21;15.20;1.40
18392;DHT22;9322;50.932;5.318;2023-09-30T08:55:48;15.20;1.40
18392;DHT22;9322;50.932;5.318;2023-09-30T08:58:16;15.00;1.40
18392;DHT22;9322;50.932;5.318;2023-09-30T09:00:42;15.10;1.40
18392;DHT22;9322;50.932;5.318;2023-09-30T09:03:08;15.20;1.40
18392;DHT22;9322;50.932;5.318;2023-09-30T09:05:34;14.90;1.40
18392;DHT22;9322;50.932;5.318;2023-09-30T09:08:00;15.30;1.40
18392;DHT22;9322;50.932;5.318;2023-09-30T09:10:26;15.50;1.40
18392;DHT22;9322;50.932;5.318;2023-09-30T09:12:58;15.20;1.40
18392;DHT22;9322;50.932;5.318;2023-09-30T09:15:25;15.40;1.40
18392;DHT22;9322;50.932;5.318;2023-09-30T09:17:52;15.80;1.40
18392;DHT22;9322;50.932;5.318;2023-09-30T09:20:25;16.20;1.40
18392;DHT22;9322;50.932;5.318;2023-09-30T09:22:55;16.10;1.40
18392;DHT22;9322;50.932;5.318;2023-09-30T09:25:22;15.50;1.40
18392;DHT22;9322;50.932;5.318;2023-09-30T09:27:49;15.50;1.40
18392;DHT22;9322;50.932;5.318;2023-09-30T09:30:20;15.60;1.40
18392;DHT22;9322;50.932;5.318;2023-09-30T09:35:23;15.90;1.40
18392;DHT22;9322;50.932;5.318;2023-09-30T09:38:02;16.40;1.40
18392;DHT22;9322;50.932;5.318;2023-09-30T09:40:33;16.60;1.40
18392;DHT22;9322;50.932;5.318;2023-09-30T09:43:00;16.70;1.40
18392;DHT22;9322;50.932;5.318;2023-09-30T09:45:29;17.30;1.40
18392;DHT22;9322;50.932;5.318;2023-09-30T09:47:58;17.60;1.40
18392;DHT22;9322;50.932;5.318;2023-09-30T09:50:23;17.90;1.40
18392;DHT22;9322;50.932;5.318;2023-09-30T09:52:51;18.20;1.40
18392;DHT22;9322;50.932;5.318;2023-09-30T09:55:18;18.00;1.40
18392;DHT22;9322;50.932;5.318;2023-09-30T09:57:45;18.60;1.40
18392;DHT22;9322;50.932;5.318;2023-09-30T10:00:15;19.80;1.40
18392;DHT22;9322;50.932;5.318;2023-09-30T10:02:42;21.10;1.40
18392;DHT22;9322;50.932;5.318;2023-09-30T10:05:08;21.40;1.40
18392;DHT22;9322;50.932;5.318;2023-09-30T10:07:39;21.30;1.40
18392;DHT22;9322;50.932;5.318;2023-09-30T10:10:11;21.20;1.40
18392;DHT22;9322;50.932;5.318;2023-09-30T10:12:39;21.40;1.40
18392;DHT22;9322;50.932;5.318;2023-09-30T10:18:09;22.00;1.40
18392;DHT22;9322;50.932;5.318;2023-09-30T10:20:37;22.70;1.40
18392;DHT22;9322;50.932;5.318;2023-09-30T10:23:24;23.30;1.40
18392;DHT22;9322;50.932;5.318;2023-09-30T10:26:13;23.40;1.40
18392;DHT22;9322;50.932;5.318;2023-09-30T10:28:44;23.30;1.40
18392;DHT22;9322;50.932;5.318;2023-09-30T10:31:21;23.90;1.40
18392;DHT22;9322;50.932;5.318;2023-09-30T10:39:00;23.20;1.40
18392;DHT22;9322;50.932;5.318;2023-09-30T10:46:52;22.80;1.40
18392;DHT22;9322;50.932;5.318;2023-09-30T10:51:54;22.10;1.40
18392;DHT22;9322;50.932;5.318;2023-09-30T10:54:27;21.70;1.40
18392;DHT22;9322;50.932;5.318;2023-09-30T10:56:54;22.40;1.40
18392;DHT22;9322;50.932;5.318;2023-09-30T10:59:24;23.60;1.40
18392;DHT22;9322;50.932;5.318;2023-09-30T11:01:50;25.30;1.40
18392;DHT22;9322;50.932;5.318;2023-09-30T11:04:17;25.90;1.40
18392;DHT22;9322;50.932;5.318;2023-09-30T11:06:44;26.40;1.40
18392;DHT22;9322;50.932;5.318;2023-09-30T11:09:16;25.00;1.40
18392;DHT22;9322;50.932;5.318;2023-09-30T11:11:43;23.90;1.40
18392;DHT22;9322;50.932;5.318;2023-09-30T11:16:55;25.30;1.40
18392;DHT22;9322;50.932;5.318;2023-09-30T11:19:22;26.00;1.40
18392;DHT22;9322;50.932;5.318;2023-09-30T11:21:52;26.30;1.40
18392;DHT22;9322;50.932;5.318;2023-09-30T11:24:19;24.80;1.40
18392;DHT22;9322;50.932;5.318;2023-09-30T11:26:45;25.10;1.40
18392;DHT22;9322;50.932;5.318;2023-09-30T11:29:16;26.40;1.40
18392;DHT22;9322;50.932;5.318;2023-09-30T11:31:45;26.50;1.40
18392;DHT22;9322;50.932;5.318;2023-09-30T11:34:12;27.10;1.40
18392;DHT22;9322;50.932;5.318;2023-09-30T11:36:40;27.90;1.40
18392;DHT22;9322;50.932;5.318;2023-09-30T11:39:10;27.60;1.40
18392;DHT22;9322;50.932;5.318;2023-09-30T11:41:39;26.40;1.40
18392;DHT22;9322;50.932;5.318;2023-09-30T11:44:09;24.60;1.40
18392;DHT22;9322;50.932;5.318;2023-09-30T11:46:57;23.10;1.40
18392;DHT22;9322;50.932;5.318;2023-09-30T11:49:35;22.70;1.40
18392;DHT22;9322;50.932;5.318;2023-09-30T11:52:04;22.60;1.40
18392;DHT22;9322;50.932;5.318;2023-09-30T11:54:32;22.50;1.40
18392;DHT22;9322;50.932;5.318;2023-09-30T11:56:59;23.20;1.40
18392;DHT22;9322;50.932;5.318;2023-09-30T11:59:25;24.00;1.40
18392;DHT22;9322;50.932;5.318;2023-09-30T12:01:51;25.00;1.40
18392;DHT22;9322;50.932;5.318;2023-09-30T12:04:17;25.30;1.40
18392;DHT22;9322;50.932;5.318;2023-09-30T12:06:45;26.00;1.40
18392;DHT22;9322;50.932;5.318;2023-09-30T12:09:15;26.50;1.40
18392;DHT22;9322;50.932;5.318;2023-09-30T12:11:42;26.80;1.40
18392;DHT22;9322;50.932;5.318;2023-09-30T12:14:12;25.70;1.40
18392;DHT22;9322;50.932;5.318;2023-09-30T12:16:38;25.40;1.40
18392;DHT22;9322;50.932;5.318;2023-09-30T12:19:04;23.40;1.40
18392;DHT22;9322;50.932;5.318;2023-09-30T12:21:33;22.30;1.40
18392;DHT22;9322;50.932;5.318;2023-09-30T12:24:02;22.10;1.40
18392;DHT22;9322;50.932;5.318;2023-09-30T12:26:30;22.40;1.40
18392;DHT22;9322;50.932;5.318;2023-09-30T12:28:56;22.80;1.40
18392;DHT22;9322;50.932;5.318;2023-09-30T12:31:22;23.00;1.40
18392;DHT22;9322;50.932;5.318;2023-09-30T12:33:48;22.90;1.40
18392;DHT22;9322;50.932;5.318;2023-09-30T12:36:21;22.30;1.40
18392;DHT22;9322;50.932;5.318;2023-09-30T12:38:47;21.70;1.40
18392;DHT22;9322;50.932;5.318;2023-09-30T12:41:13;21.10;1.40
18392;DHT22;9322;50.932;5.318;2023-09-30T12:43:39;21.70;1.40
18392;DHT22;9322;50.932;5.318;2023-09-30T12:46:08;21.50;1.40
18392;DHT22;9322;50.932;5.318;2023-09-30T12:48:34;21.20;1.40
18392;DHT22;9322;50.932;5.318;2023-09-30T12:51:00;21.70;1.40
18392;DHT22;9322;50.932;5.318;2023-09-30T12:53:26;22.10;1.40
18392;DHT22;9322;50.932;5.318;2023-09-30T12:55:51;22.20;1.40
18392;DHT22;9322;50.932;5.318;2023-09-30T12:58:17;22.00;1.40
18392;DHT22;9322;50.932;5.318;2023-09-30T13:00:43;22.20;1.40
18392;DHT22;9322;50.932;5.318;2023-09-30T13:03:09;22.40;1.40
18392;DHT22;9322;50.932;5.318;2023-09-30T13:05:35;22.10;1.40
18392;DHT22;9322;50.932;5.318;2023-09-30T13:08:01;21.60;1.40
18392;DHT22;9322;50.932;5.318;2023-09-30T13:10:27;22.00;1.40
18392;DHT22;9322;50.932;5.318;2023-09-30T13:12:55;22.20;1.40
18392;DHT22;9322;50.932;5.318;2023-09-30T13:15:21;22.10;1.40
18392;DHT22;9322;50.932;5.318;2023-09-30T13:17:47;21.60;1.40
18392;DHT22;9322;50.932;5.318;2023-09-30T13:20:13;21.50;1.40
18392;DHT22;9322;50.932;5.318;2023-09-30T13:22:38;21.20;1.40
18392;DHT22;9322;50.932;5.318;2023-09-30T13:25:05;21.10;1.40
18392;DHT22;9322;50.932;5.318;2023-09-30T13:27:31;20.80;1.40
18392;DHT22;9322;50.932;5.318;2023-09-30T13:29:57;20.80;1.40
18392;DHT22;9322;50.932;5.318;2023-09-30T13:32:24;21.00;1.40
18392;DHT22;9322;50.932;5.318;2023-09-30T13:34:53;21.20;1.40
18392;DHT22;9322;50.932;5.318;2023-09-30T13:37:19;21.00;1.40
18392;DHT22;9322;50.932;5.318;2023-09-30T13:39:45;20.70;1.40
18392;DHT22;9322;50.932;5.318;2023-09-30T13:42:11;21.00;1.40
18392;DHT22;9322;50.932;5.318;2023-09-30T13:44:36;21.20;1.40
18392;DHT22;9322;50.932;5.318;2023-09-30T13:47:02;21.60;1.40
18392;DHT22;9322;50.932;5.318;2023-09-30T13:49:28;22.00;1.40
18392;DHT22;9322;50.932;5.318;2023-09-30T13:51:55;22.00;1.40
18392;DHT22;9322;50.932;5.318;2023-09-30T13:54:21;22.00;1.40
18392;DHT22;9322;50.932;5.318;2023-09-30T13:56:47;21.20;1.40
18392;DHT22;9322;50.932;5.318;2023-09-30T13:59:13;20.80;1.40
18392;DHT22;9322;50.932;5.318;2023-09-30T14:01:38;20.60;1.40
18392;DHT22;9322;50.932;5.318;2023-09-30T14:04:07;20.60;1.40
18392;DHT22;9322;50.932;5.318;2023-09-30T14:06:32;20.50;1.40
18392;DHT22;9322;50.932;5.318;2023-09-30T14:08:58;20.60;1.40
18392;DHT22;9322;50.932;5.318;2023-09-30T14:11:24;20.60;1.40
18392;DHT22;9322;50.932;5.318;2023-09-30T14:13:50;20.80;1.40
18392;DHT22;9322;50.932;5.318;2023-09-30T14:16:16;21.10;1.40
18392;DHT22;9322;50.932;5.318;2023-09-30T14:18:41;20.90;1.40
18392;DHT22;9322;50.932;5.318;2023-09-30T14:21:08;21.30;1.40
18392;DHT22;9322;50.932;5.318;2023-09-30T14:23:33;21.50;1.40
18392;DHT22;9322;50.932;5.318;2023-09-30T14:25:59;21.50;1.40
18392;DHT22;9322;50.932;5.318;2023-09-30T14:28:26;21.70;1.40
18392;DHT22;9322;50.932;5.318;2023-09-30T14:30:51;21.80;1.40
18392;DHT22;9322;50.932;5.318;2023-09-30T14:33:17;21.50;1.40
18392;DHT22;9322;50.932;5.318;2023-09-30T14:35:44;21.70;1.40
18392;DHT22;9322;50.932;5.318;2023-09-30T14:38:10;21.60;1.40
18392;DHT22;9322;50.932;5.318;2023-09-30T14:40:39;21.90;1.40
18392;DHT22;9322;50.932;5.318;2023-09-30T14:43:08;21.60;1.40
18392;DHT22;9322;50.932;5.318;2023-09-30T14:45:38;21.10;1.40
18392;DHT22;9322;50.932;5.318;2023-09-30T14:48:06;20.70;1.40
18392;DHT22;9322;50.932;5.318;2023-09-30T14:50:31;20.40;1.40
18392;DHT22;9322;50.932;5.318;2023-09-30T14:52:58;20.80;1.40
18392;DHT22;9322;50.932;5.318;2023-09-30T14:55:23;21.10;1.40
18392;DHT22;9322;50.932;5.318;2023-09-30T14:57:49;21.10;1.40
18392;DHT22;9322;50.932;5.318;2023-09-30T15:00:15;20.80;1.40
18392;DHT22;9322;50.932;5.318;2023-09-30T15:02:41;20.90;1.40
18392;DHT22;9322;50.932;5.318;2023-09-30T15:05:06;20.50;1.40
18392;DHT22;9322;50.932;5.318;2023-09-30T15:07:32;20.40;1.40
18392;DHT22;9322;50.932;5.318;2023-09-30T15:09:57;20.70;1.40
18392;DHT22;9322;50.932;5.318;2023-09-30T15:12:23;20.30;1.40
18392;DHT22;9322;50.932;5.318;2023-09-30T15:14:49;20.30;1.40
18392;DHT22;9322;50.932;5.318;2023-09-30T15:17:14;20.40;1.40
18392;DHT22;9322;50.932;5.318;2023-09-30T15:19:40;20.60;1.40
18392;DHT22;9322;50.932;5.318;2023-09-30T15:22:06;20.60;1.40
18392;DHT22;9322;50.932;5.318;2023-09-30T15:24:31;20.40;1.40
18392;DHT22;9322;50.932;5.318;2023-09-30T15:26:57;20.20;1.40
18392;DHT22;9322;50.932;5.318;2023-09-30T15:29:23;20.00;1.40
18392;DHT22;9322;50.932;5.318;2023-09-30T15:31:48;20.00;1.40
18392;DHT22;9322;50.932;5.318;2023-09-30T15:34:14;20.00;1.40
18392;DHT22;9322;50.932;5.318;2023-09-30T15:36:40;19.80;1.40
18392;DHT22;9322;50.932;5.318;2023-09-30T15:39:06;19.70;1.40
18392;DHT22;9322;50.932;5.318;2023-09-30T15:41:32;19.60;1.40
18392;DHT22;9322;50.932;5.318;2023-09-30T15:44:00;19.60;1.40
18392;DHT22;9322;50.932;5.318;2023-09-30T15:46:26;19.70;1.40
18392;DHT22;9322;50.932;5.318;2023-09-30T15:48:51;19.80;1.40
18392;DHT22;9322;50.932;5.318;2023-09-30T15:51:17;19.90;1.40
18392;DHT22;9322;50.932;5.318;2023-09-30T15:53:43;20.00;1.40
18392;DHT22;9322;50.932;5.318;2023-09-30T15:56:10;20.10;1.40
18392;DHT22;9322;50.932;5.318;2023-09-30T15:58:35;20.10;1.40
18392;DHT22;9322;50.932;5.318;2023-09-30T16:01:01;20.10;1.40
18392;DHT22;9322;50.932;5.318;2023-09-30T16:03:28;19.90;1.40
18392;DHT22;9322;50.932;5.318;2023-09-30T16:05:53;19.90;1.40
18392;DHT22;9322;50.932;5.318;2023-09-30T16:08:19;19.70;1.40
18392;DHT22;9322;50.932;5.318;2023-09-30T16:10:45;19.50;1.40
18392;DHT22;9322;50.932;5.318;2023-09-30T16:13:11;19.50;1.40
18392;DHT22;9322;50.932;5.318;2023-09-30T16:15:41;19.60;1.40
18392;DHT22;9322;50.932;5.318;2023-09-30T16:18:08;19.40;1.40
18392;DHT22;9322;50.932;5.318;2023-09-30T16:20:33;19.40;1.40
18392;DHT22;9322;50.932;5.318;2023-09-30T16:22:59;19.40;1.40